createdAt,value
2024-03-07T00:03:19.001Z,19.33
2024-03-07T00:08:24.195Z,22.80
2024-03-07T00:13:29.405Z,21.93
2024-03-07T00:18:35.822Z,22.00
2024-03-07T00:23:41.195Z,22.23
2024-03-07T00:28:46.502Z,21.20
2024-03-07T00:34:03.017Z,23.73
2024-03-07T00:38:58.632Z,19.93
2024-03-07T00:44:05.137Z,20.67
2024-03-07T00:49:10.348Z,19.40
2024-03-07T00:54:15.578Z,20.03
2024-03-07T00:59:21.129Z,20.43
2024-03-07T01:04:28.126Z,19.00
2024-03-07T01:09:33.303Z,20.30
2024-03-07T01:14:38.530Z,18.83
2024-03-07T01:19:44.547Z,18.27
2024-03-07T01:24:51.648Z,18.90
2024-03-07T01:29:57.014Z,18.20
2024-03-07T01:35:02.522Z,17.87
2024-03-07T01:40:10.464Z,19.47
2024-03-07T01:45:15.992Z,20.20
2024-03-07T01:50:21.212Z,20.33
2024-03-07T01:55:26.376Z,21.17
2024-03-07T02:00:31.517Z,21.03
2024-03-07T02:05:37.437Z,21.47
2024-03-07T02:10:43.144Z,22.20
2024-03-07T02:15:49.047Z,21.83
2024-03-07T02:20:56.046Z,20.77
2024-03-07T02:26:01.468Z,19.97
2024-03-07T02:31:06.884Z,21.87
2024-03-07T02:36:12.314Z,20.10
2024-03-07T02:41:17.513Z,21.73
2024-03-07T02:46:22.906Z,20.37
2024-03-07T02:51:28.203Z,21.13
2024-03-07T02:56:33.772Z,21.20
2024-03-07T03:01:39.083Z,22.07
2024-03-07T03:06:44.289Z,22.47
2024-03-07T03:11:49.733Z,22.50
2024-03-07T03:16:55.061Z,22.20
2024-03-07T03:22:00.396Z,22.97
2024-03-07T03:27:06.599Z,25.20
2024-03-07T03:32:12.157Z,24.30
2024-03-07T03:37:18.414Z,24.33
2024-03-07T03:42:24.577Z,25.17
2024-03-07T03:47:30.977Z,23.23
2024-03-07T03:52:36.957Z,24.10
2024-03-07T03:57:43.820Z,23.93
2024-03-07T04:02:50.639Z,24.10
2024-03-07T04:07:57.691Z,24.27
2024-03-07T04:13:04.584Z,23.87
2024-03-07T04:18:10.273Z,24.00
2024-03-07T04:23:15.690Z,23.73
2024-03-07T04:28:21.670Z,24.83
2024-03-07T04:33:28.194Z,22.97
2024-03-07T04:38:33.611Z,25.43
2024-03-07T04:43:38.940Z,24.03
2024-03-07T04:48:44.178Z,24.37
2024-03-07T04:53:49.461Z,25.20
2024-03-07T04:58:55.065Z,22.93
2024-03-07T05:04:03.007Z,22.23
2024-03-07T05:09:09.935Z,23.00
2024-03-07T05:14:17.661Z,24.37
2024-03-07T05:19:23.067Z,21.57
2024-03-07T05:24:28.688Z,22.60
2024-03-07T05:29:33.903Z,23.60
2024-03-07T05:34:41.011Z,21.90
2024-03-07T05:39:46.503Z,22.87
2024-03-07T05:44:51.952Z,22.97
2024-03-07T05:49:57.601Z,21.10
2024-03-07T05:55:02.787Z,24.60
2024-03-07T06:00:11.207Z,22.10
2024-03-07T06:05:17.326Z,23.57
2024-03-07T06:10:25.032Z,22.57
2024-03-07T06:15:30.295Z,23.03
2024-03-07T06:20:36.916Z,21.97
2024-03-07T06:25:48.940Z,20.97
2024-03-07T06:30:55.502Z,22.43
2024-03-07T06:36:02.268Z,21.70
2024-03-07T06:41:10.584Z,21.77
2024-03-07T06:46:17.183Z,23.57
2024-03-07T06:51:23.668Z,22.90
2024-03-07T06:56:29.052Z,22.10
2024-03-07T07:01:35.916Z,21.80
2024-03-07T07:06:42.777Z,26.17
2024-03-07T07:11:48.766Z,22.07
2024-03-07T07:16:54.229Z,24.67
2024-03-07T07:21:59.586Z,23.23
2024-03-07T07:27:05.007Z,21.43
2024-03-07T07:32:12.196Z,21.97
2024-03-07T07:37:17.843Z,25.10
2024-03-07T07:42:23.180Z,63.10
2024-03-07T07:47:29.029Z,50.93
2024-03-07T08:08:15.386Z,45.73
2024-03-07T08:18:37.552Z,26.87
2024-03-07T08:23:43.729Z,35.40
2024-03-07T08:28:49.168Z,53.67
2024-03-07T08:33:55.204Z,21.07
2024-03-07T08:39:00.809Z,31.17
2024-03-07T08:44:06.186Z,41.33
2024-03-07T08:59:51.342Z,34.40
2024-03-07T09:04:57.746Z,31.53
2024-03-07T09:10:03.228Z,37.57
2024-03-07T09:15:11.482Z,24.27
2024-03-07T09:20:17.294Z,29.60
2024-03-07T09:25:22.777Z,23.70
2024-03-07T09:30:29.231Z,25.00
2024-03-07T09:35:34.556Z,21.40
2024-03-07T09:40:40.065Z,23.27
2024-03-07T09:45:48.756Z,22.27
2024-03-07T09:50:54.791Z,24.53
2024-03-07T09:56:00.435Z,23.47
2024-03-07T10:06:23.418Z,20.17
2024-03-07T10:11:29.024Z,21.57
2024-03-07T10:16:34.409Z,17.73
2024-03-07T10:21:39.478Z,20.30
2024-03-07T10:26:47.114Z,19.30
2024-03-07T10:37:17.551Z,17.47
2024-03-07T10:42:25.241Z,19.20
2024-03-07T10:47:31.592Z,17.63
2024-03-07T10:52:40.375Z,21.67
2024-03-07T11:03:03.441Z,17.83
2024-03-07T11:08:11.480Z,17.10
2024-03-07T11:13:18.589Z,17.50
2024-03-07T11:18:23.866Z,17.90
2024-03-07T11:34:20.255Z,15.20
2024-03-07T11:39:45.707Z,20.00
2024-03-07T11:44:52.595Z,17.63
2024-03-07T11:49:59.354Z,16.63
2024-03-07T11:55:06.322Z,14.90
2024-03-07T12:00:16.458Z,18.00
2024-03-07T12:05:21.957Z,16.10
2024-03-07T12:10:27.443Z,16.67
2024-03-07T12:15:33.291Z,18.43
2024-03-07T12:20:42.169Z,15.67
2024-03-07T12:25:48.125Z,17.63
2024-03-07T12:30:55.736Z,18.10
2024-03-07T12:36:04.373Z,15.17
2024-03-07T12:41:16.141Z,14.70
2024-03-07T12:46:22.011Z,17.00
2024-03-07T12:51:27.189Z,16.87
2024-03-07T12:56:33.896Z,14.60
2024-03-07T13:01:41.010Z,16.10
2024-03-07T13:06:48.108Z,14.90
2024-03-07T13:11:53.216Z,14.53
2024-03-07T13:17:00.029Z,14.10
2024-03-07T13:22:07.271Z,17.60
2024-03-07T13:27:13.039Z,14.83
2024-03-07T13:32:18.341Z,13.17
2024-03-07T13:37:23.711Z,15.43
2024-03-07T13:42:28.754Z,16.40
2024-03-07T13:47:33.960Z,14.70
2024-03-07T13:52:40.814Z,16.37
2024-03-07T13:57:49.499Z,16.40
2024-03-07T14:03:24.352Z,15.63
2024-03-07T14:09:00.996Z,16.17
2024-03-07T14:14:26.494Z,18.87
2024-03-07T14:25:55.867Z,16.07
2024-03-07T14:31:01.033Z,15.27
2024-03-07T14:41:26.999Z,42.50
2024-03-07T15:02:31.780Z,22.37
2024-03-07T15:07:36.951Z,37.47
2024-03-07T15:18:05.169Z,47.73
2024-03-07T15:33:35.908Z,43.00
2024-03-07T15:38:41.245Z,29.60
2024-03-07T15:43:46.791Z,32.77
2024-03-07T15:48:53.291Z,18.27
2024-03-07T15:53:59.245Z,25.53
2024-03-07T16:04:35.527Z,135.77
2024-03-07T16:14:57.638Z,98.83
2024-03-07T16:20:02.922Z,69.83
2024-03-07T16:30:28.098Z,57.57
2024-03-07T16:35:33.920Z,40.07
2024-03-07T16:40:42.948Z,52.97
2024-03-07T16:45:47.534Z,54.53
2024-03-07T16:50:54.535Z,29.27
2024-03-07T16:55:59.671Z,23.40
2024-03-07T17:01:07.414Z,24.90
2024-03-07T17:06:12.582Z,43.97
2024-03-07T17:11:17.860Z,43.13
2024-03-07T17:16:24.370Z,31.77
2024-03-07T17:21:29.443Z,21.63
2024-03-07T17:26:35.280Z,16.47
2024-03-07T17:31:40.585Z,34.57
2024-03-07T17:36:47.995Z,25.10
2024-03-07T17:41:53.206Z,23.37
2024-03-07T17:46:58.429Z,23.83
2024-03-07T17:52:03.781Z,16.73
2024-03-07T17:57:09.047Z,16.43
2024-03-07T18:02:15.748Z,17.77
2024-03-07T18:07:22.753Z,19.30
2024-03-07T18:12:28.772Z,17.57
2024-03-07T18:17:35.204Z,22.43
2024-03-07T18:22:43.536Z,27.80
2024-03-07T18:27:48.702Z,31.63
2024-03-07T18:32:54.552Z,32.80
2024-03-07T18:37:59.934Z,57.33
2024-03-07T18:43:08.499Z,41.53
2024-03-07T18:48:15.621Z,24.67
2024-03-07T18:53:22.626Z,49.17
2024-03-07T18:58:27.781Z,30.97
2024-03-07T19:03:32.915Z,68.07
2024-03-07T19:08:38.159Z,62.33
2024-03-07T19:13:43.739Z,54.80
2024-03-07T19:18:48.800Z,30.60
2024-03-07T19:23:54.324Z,29.30
2024-03-07T19:29:00.221Z,31.37
2024-03-07T19:34:07.172Z,35.33
2024-03-07T19:39:14.048Z,62.30
2024-03-07T19:44:19.829Z,48.53
2024-03-07T19:49:26.016Z,48.50
2024-03-07T19:54:31.872Z,82.93
2024-03-07T19:59:36.900Z,89.57
2024-03-07T20:04:43.837Z,61.00
2024-03-07T20:09:49.231Z,70.70
2024-03-07T20:14:54.274Z,63.20
2024-03-07T20:19:59.470Z,48.60
2024-03-07T20:25:06.697Z,56.23
2024-03-07T20:30:15.549Z,59.73
2024-03-07T20:35:21.665Z,47.97
2024-03-07T20:40:27.202Z,53.68
2024-03-07T20:45:34.059Z,38.70
2024-03-07T20:50:40.943Z,37.63
2024-03-07T20:55:47.124Z,33.03
2024-03-07T21:00:53.448Z,29.00
2024-03-07T21:05:59.680Z,31.23
2024-03-07T21:11:06.817Z,124.70
2024-03-07T21:16:12.856Z,113.00
2024-03-07T21:21:18.148Z,135.00
2024-03-07T21:26:23.364Z,51.37
2024-03-07T21:31:28.686Z,61.27
2024-03-07T21:36:33.752Z,82.73
2024-03-07T21:41:38.780Z,61.00
2024-03-07T21:46:44.508Z,34.20
2024-03-07T21:51:50.277Z,35.10
2024-03-07T21:56:55.325Z,75.30
2024-03-07T22:02:00.944Z,51.90
2024-03-07T22:07:06.401Z,78.67
2024-03-07T22:12:11.559Z,120.67
2024-03-07T22:17:17.589Z,69.03
2024-03-07T22:22:22.600Z,51.47
2024-03-07T22:27:28.818Z,58.83
2024-03-07T22:32:34.056Z,76.13
2024-03-07T22:37:39.412Z,54.53
2024-03-07T22:42:45.281Z,51.50
2024-03-07T22:47:52.657Z,45.73
2024-03-07T22:52:58.149Z,46.67
2024-03-07T22:58:04.091Z,46.23
2024-03-07T23:03:09.179Z,41.27
2024-03-07T23:08:14.762Z,41.03
2024-03-07T23:13:20.035Z,41.77
2024-03-07T23:18:25.720Z,40.70
2024-03-07T23:23:30.861Z,40.60
2024-03-07T23:28:37.066Z,41.67
2024-03-07T23:33:42.887Z,42.77
2024-03-07T23:38:48.453Z,50.57
2024-03-07T23:43:54.511Z,45.57
2024-03-07T23:48:59.880Z,45.33
2024-03-07T23:54:06.212Z,48.40
2024-03-07T23:59:11.509Z,43.20
